Time;durP1;ratioP1;P1;durP2;ratioP2;P2;SDS_P1;SDS_P2;PMS_P1;PMS_P2;Temp;Humidity;BMP_temperature;BMP_pressure;BME280_temperature;BME280_humidity;BME280_pressure;Samples;Min_cycle;Max_cycle;Signal;HPM_P1;HPM_P2
2022/03/17 00:01:10;;;;;;;4.00;2.53;;;;;;;-0.16;72.24;100900.19;5081942;28;20044;-83
2022/03/17 00:03:41;;;;;;;6.45;3.13;;;;;;;0.00;71.45;100891.38;5091388;28;20052;-81
2022/03/17 00:06:14;;;;;;;8.18;4.00;;;;;;;0.11;71.53;100894.31;5096303;28;20047;-82
2022/03/17 00:08:44;;;;;;;7.55;2.88;;;;;;;0.29;71.39;100887.25;5096081;28;20467;-84
2022/03/17 00:11:16;;;;;;;5.72;3.03;;;;;;;0.50;70.53;100887.16;5096338;28;20056;-82
2022/03/17 00:13:46;;;;;;;6.50;3.13;;;;;;;0.54;69.98;100888.09;5102093;28;20127;-85
2022/03/17 00:16:19;;;;;;;5.50;3.40;;;;;;;0.65;70.06;100884.22;5102202;28;20043;-86
2022/03/17 00:18:50;;;;;;;4.72;2.83;;;;;;;0.49;69.89;100882.81;5094498;28;20072;-85
2022/03/17 00:21:23;;;;;;;11.23;5.50;;;;;;;0.28;69.80;100871.78;5099191;28;20328;-85
2022/03/17 00:23:54;;;;;;;10.35;5.05;;;;;;;0.32;69.92;100878.78;5101060;28;20051;-84
2022/03/17 00:26:24;;;;;;;5.70;2.35;;;;;;;0.39;69.89;100891.88;5095743;28;20043;-84
2022/03/17 00:28:55;;;;;;;4.10;2.05;;;;;;;0.41;69.46;100886.81;5091462;28;20047;-84
2022/03/17 00:31:28;;;;;;;3.95;2.03;;;;;;;0.41;69.87;100884.25;5099479;28;20050;-84
2022/03/17 00:33:59;;;;;;;7.50;2.20;;;;;;;0.50;69.79;100888.81;5081865;28;20107;-84
2022/03/17 00:36:30;;;;;;;3.45;2.15;;;;;;;0.48;69.36;100869.91;5096022;28;20040;-86
2022/03/17 00:39:00;;;;;;;5.20;2.70;;;;;;;0.70;68.87;100890.38;5082697;28;20107;-84
2022/03/17 00:41:31;;;;;;;4.13;2.35;;;;;;;0.89;68.31;100888.41;5091137;28;20043;-84
2022/03/17 00:44:03;;;;;;;6.07;2.58;;;;;;;1.02;67.42;100880.25;5081041;28;20058;-83
2022/03/17 00:46:36;;;;;;;3.53;2.08;;;;;;;1.09;66.62;100877.06;5102140;28;20348;-84
2022/03/17 00:49:06;;;;;;;4.55;2.17;;;;;;;1.21;66.29;100874.88;5088801;28;20044;-84
2022/03/17 00:51:38;;;;;;;5.80;2.92;;;;;;;1.21;66.77;100846.56;5095102;28;20059;-84
2022/03/17 00:54:09;;;;;;;4.97;2.85;;;;;;;1.42;66.72;100876.34;5090767;28;20044;-83
2022/03/17 00:56:40;;;;;;;5.15;3.00;;;;;;;1.40;66.24;100872.84;5094446;28;20351;-84
2022/03/17 00:59:10;;;;;;;6.90;2.50;;;;;;;1.20;66.36;100874.81;5091662;28;20112;-84
2022/03/17 01:01:43;;;;;;;3.70;2.20;;;;;;;1.23;66.18;100873.22;5091977;28;20228;-85
2022/03/17 01:04:14;;;;;;;6.40;2.67;;;;;;;1.13;66.40;100873.78;5096891;28;20052;-85
2022/03/17 01:06:44;;;;;;;4.28;2.38;;;;;;;1.14;66.90;100865.22;5091045;28;20524;-85
2022/03/17 01:09:15;;;;;;;6.72;2.90;;;;;;;1.12;67.21;100851.41;5101651;28;20047;-84
2022/03/17 01:11:46;;;;;;;3.95;2.53;;;;;;;1.11;67.07;100854.81;5088481;28;20072;-85
2022/03/17 01:14:17;;;;;;;4.10;2.33;;;;;;;1.16;66.75;100848.13;5088945;28;20514;-84
2022/03/17 01:16:50;;;;;;;4.47;2.80;;;;;;;1.10;66.32;100832.50;5097296;28;20063;-85
2022/03/17 01:19:21;;;;;;;4.88;2.67;;;;;;;1.13;66.15;100837.72;5093192;28;20267;-85
2022/03/17 01:21:52;;;;;;;4.22;2.78;;;;;;;1.20;65.34;100849.97;5091194;28;20079;-85
2022/03/17 01:24:23;;;;;;;4.75;2.92;;;;;;;1.22;65.63;100850.91;5092598;28;20498;-85
2022/03/17 01:26:54;;;;;;;6.82;2.50;;;;;;;1.36;65.49;100855.59;5089871;28;20052;-84
2022/03/17 01:29:26;;;;;;;4.93;2.75;;;;;;;1.25;65.17;100852.69;5084901;28;20051;-85
2022/03/17 01:31:59;;;;;;;8.32;2.63;;;;;;;1.34;66.25;100852.09;5095727;28;20103;-84
2022/03/17 01:34:29;;;;;;;5.75;3.03;;;;;;;1.27;66.33;100849.34;5089364;28;20071;-86
2022/03/17 01:37:00;;;;;;;4.85;2.75;;;;;;;1.33;66.00;100855.50;5090504;28;20072;-85
2022/03/17 01:39:31;;;;;;;5.72;2.40;;;;;;;1.24;65.62;100856.94;5094866;28;20048;-84
2022/03/17 01:42:05;;;;;;;7.75;4.40;;;;;;;1.25;65.57;100852.69;5093946;28;20040;-84
2022/03/17 01:44:36;;;;;;;6.22;3.83;;;;;;;1.32;64.95;100846.00;5085709;28;20048;-86
2022/03/17 01:50:08;;;;;;;4.22;2.70;;;;;;;1.68;65.22;100834.22;5060819;28;20104;-85
2022/03/17 01:52:40;;;;;;;3.92;2.35;;;;;;;1.89;64.66;100861.44;5097198;28;20052;-85
2022/03/17 01:55:13;;;;;;;4.25;2.00;;;;;;;1.68;63.90;100834.22;5092228;28;20051;-84
2022/03/17 01:57:44;;;;;;;5.15;2.50;;;;;;;1.55;63.74;100811.53;5098356;28;20079;-84
2022/03/17 02:00:18;;;;;;;4.82;2.50;;;;;;;1.77;65.07;100848.19;5089622;28;20392;-87
2022/03/17 02:02:52;;;;;;;3.97;2.20;;;;;;;1.96;64.31;100850.47;5095883;28;20435;-86
2022/03/17 02:05:24;;;;;;;5.97;2.63;;;;;;;2.04;64.69;100848.97;5086648;28;20054;-85
2022/03/17 02:07:55;;;;;;;3.78;1.95;;;;;;;2.01;64.17;100854.03;5099871;28;20052;-85
2022/03/17 02:10:26;;;;;;;3.63;2.60;;;;;;;1.98;65.36;100830.78;5095834;28;20047;-84
2022/03/17 02:15:43;;;;;;;3.83;2.20;;;;;;;2.16;62.98;100838.13;5090037;28;20055;-85
2022/03/17 02:18:16;;;;;;;3.38;2.20;;;;;;;2.27;64.40;100839.31;5086051;28;20045;-85
2022/03/17 02:20:48;;;;;;;3.20;2.20;;;;;;;1.98;64.29;100792.09;5087009;28;20503;-85
2022/03/17 02:26:08;;;;;;;5.25;2.97;;;;;;;2.30;64.50;100841.09;5096430;28;20300;-85
2022/03/17 02:28:43;;;;;;;9.07;3.55;;;;;;;2.21;65.12;100800.44;5100791;28;20056;-86
2022/03/17 02:31:15;;;;;;;4.22;2.70;;;;;;;2.30;63.60;100835.94;5096374;28;20064;-86
2022/03/17 02:33:46;;;;;;;3.40;2.22;;;;;;;2.14;63.68;100834.63;5093889;28;20059;-86
2022/03/17 02:36:18;;;;;;;5.50;2.08;;;;;;;2.31;63.39;100828.22;5103999;28;20087;-86
2022/03/17 02:38:50;;;;;;;5.05;2.40;;;;;;;2.53;61.78;100824.47;5101504;28;20044;-85
2022/03/17 02:41:23;;;;;;;3.65;2.03;;;;;;;2.23;62.56;100797.91;5089296;28;20098;-86
2022/03/17 02:43:54;;;;;;;4.15;2.40;;;;;;;2.48;62.57;100831.22;5095971;28;20072;-87
2022/03/17 02:46:28;;;;;;;4.30;2.13;;;;;;;2.47;62.59;100834.66;5086403;28;20494;-87
2022/03/17 02:49:00;;;;;;;3.50;2.30;;;;;;;2.47;62.34;100833.75;5092625;28;20269;-87
2022/03/17 02:51:33;;;;;;;4.13;2.22;;;;;;;2.34;62.34;100828.28;5097290;28;20082;-87
2022/03/17 02:54:07;;;;;;;5.05;2.70;;;;;;;2.16;62.86;100792.59;5092480;28;20328;-86
2022/03/17 02:56:38;;;;;;;6.40;2.72;;;;;;;2.23;62.84;100813.38;5086469;28;20119;-86
2022/03/17 02:59:09;;;;;;;4.43;3.00;;;;;;;1.75;62.88;100818.94;5094727;28;20195;-86
2022/03/17 03:01:40;;;;;;;5.35;2.55;;;;;;;1.63;63.76;100814.31;5097015;28;20040;-85
2022/03/17 03:04:13;;;;;;;6.10;2.72;;;;;;;1.63;64.12;100817.75;5095008;28;20060;-85
2022/03/17 03:06:45;;;;;;;5.53;2.40;;;;;;;1.78;63.11;100808.72;5088800;28;20079;-86
2022/03/17 03:09:18;;;;;;;3.33;2.50;;;;;;;1.97;62.09;100795.50;5096321;28;20115;-86
2022/03/17 03:11:49;;;;;;;4.15;2.00;;;;;;;2.12;62.19;100805.34;5097431;28;20048;-86
2022/03/17 03:14:19;;;;;;;3.22;2.22;;;;;;;1.68;62.45;100787.84;5095782;28;20107;-86
2022/03/17 03:16:51;;;;;;;4.28;2.47;;;;;;;0.83;63.07;100689.28;5083903;28;20072;-86
2022/03/17 03:19:22;;;;;;;4.00;2.53;;;;;;;1.34;64.27;100772.28;5096551;28;20052;-86
2022/03/17 03:21:53;;;;;;;4.72;2.60;;;;;;;1.65;64.08;100818.69;5103717;28;20059;-86
2022/03/17 03:24:25;;;;;;;3.78;2.22;;;;;;;1.92;62.98;100802.22;5100710;28;20044;-85
2022/03/17 03:26:56;;;;;;;3.38;2.30;;;;;;;1.81;63.24;100804.53;5096381;28;20068;-85
2022/03/17 03:29:27;;;;;;;3.72;2.47;;;;;;;1.71;63.47;100810.25;5087583;28;20056;-85
2022/03/17 03:31:59;;;;;;;4.03;2.78;;;;;;;1.10;64.76;100716.69;5096127;28;20047;-85
2022/03/17 03:34:30;;;;;;;5.47;2.60;;;;;;;0.52;66.34;100707.19;5094125;28;20048;-86
2022/03/17 03:39:50;;;;;;;3.92;2.97;;;;;;;0.51;68.00;100774.88;5093929;28;20198;-86
2022/03/17 03:42:22;;;;;;;5.85;2.88;;;;;;;0.45;68.35;100756.66;5089836;28;20107;-85
2022/03/17 03:44:53;;;;;;;6.43;2.78;;;;;;;0.78;68.42;100801.47;5092053;28;20111;-86
2022/03/17 03:47:26;;;;;;;6.13;3.53;;;;;;;0.69;67.70;100752.31;5103223;28;20049;-85
2022/03/17 03:49:56;;;;;;;5.15;2.97;;;;;;;0.83;67.40;100766.47;5093833;28;20096;-86
2022/03/17 03:52:27;;;;;;;5.60;3.20;;;;;;;1.04;67.21;100785.97;5083001;28;20044;-86
2022/03/17 03:54:59;;;;;;;5.10;2.78;;;;;;;0.80;66.99;100780.91;5088795;28;20048;-85
2022/03/17 03:57:30;;;;;;;5.03;3.17;;;;;;;0.67;68.40;100795.09;5096010;28;20052;-89
2022/03/17 04:00:01;;;;;;;5.20;3.05;;;;;;;0.62;68.61;100786.34;5083067;28;20281;-85
2022/03/17 04:02:32;;;;;;;6.15;3.20;;;;;;;0.54;68.25;100755.25;5084447;28;20075;-85
2022/03/17 04:05:03;;;;;;;5.07;3.17;;;;;;;0.70;68.45;100789.19;5084059;28;20040;-85
2022/03/17 04:07:34;;;;;;;6.85;3.75;;;;;;;0.67;68.32;100787.38;5082780;28;20116;-85
2022/03/17 04:10:07;;;;;;;5.72;3.30;;;;;;;-0.20;68.61;100667.19;5083964;28;20044;-85
2022/03/17 04:12:38;;;;;;;5.97;3.83;;;;;;;0.81;69.01;100783.56;5088130;28;20123;-85
2022/03/17 04:15:10;;;;;;;5.10;3.25;;;;;;;0.95;68.40;100790.81;5096071;28;20072;-85
2022/03/17 04:17:41;;;;;;;7.35;3.70;;;;;;;1.06;67.31;100789.47;5090129;28;20044;-85
2022/03/17 04:20:13;;;;;;;5.32;3.35;;;;;;;0.96;66.57;100757.44;5082633;28;20114;-85
2022/03/17 04:22:43;;;;;;;7.35;3.83;;;;;;;1.21;66.17;100779.63;5083280;28;20047;-85
2022/03/17 04:25:16;;;;;;;5.40;3.05;;;;;;;1.19;65.64;100776.13;5093180;28;20052;-85
2022/03/17 04:27:47;;;;;;;4.22;2.80;;;;;;;1.45;64.80;100778.63;5098162;28;20048;-85
2022/03/17 04:30:18;;;;;;;6.47;3.70;;;;;;;1.29;64.97;100778.16;5099219;28;20043;-85
2022/03/17 04:32:49;;;;;;;4.75;3.17;;;;;;;1.14;64.89;100769.97;5088447;28;20040;-85
2022/03/17 04:35:20;;;;;;;7.35;3.30;;;;;;;1.35;65.02;100772.31;5086629;28;20079;-85
2022/03/17 04:37:50;;;;;;;5.43;3.30;;;;;;;1.49;63.76;100776.16;5090144;28;20243;-85
2022/03/17 04:40:23;;;;;;;6.68;3.50;;;;;;;1.43;63.40;100775.13;5084923;28;20045;-85
2022/03/17 04:42:54;;;;;;;3.95;2.85;;;;;;;1.36;63.39;100774.06;5111754;28;20027;-86
2022/03/17 04:45:24;;;;;;;8.05;3.20;;;;;;;1.43;64.05;100781.13;5113709;28;20095;-85
2022/03/17 04:47:55;;;;;;;6.55;3.13;;;;;;;1.37;63.48;100769.78;5098585;28;20059;-86
2022/03/17 04:50:29;;;;;;;4.70;2.83;;;;;;;1.32;62.85;100776.50;5116386;28;20034;-85
2022/03/17 04:55:49;;;;;;;6.70;3.25;;;;;;;1.09;64.65;100779.25;5107509;28;20051;-86
2022/03/17 04:58:20;;;;;;;5.93;3.47;;;;;;;0.97;64.39;100763.44;5098410;28;20028;-86
2022/03/17 05:00:52;;;;;;;5.53;3.22;;;;;;;1.07;64.98;100765.47;5101998;28;20052;-84
2022/03/17 05:03:23;;;;;;;6.38;3.20;;;;;;;1.03;64.94;100773.94;5107019;28;20028;-85
2022/03/17 05:05:55;;;;;;;6.38;3.47;;;;;;;1.05;64.47;100772.28;5103795;28;20048;-86
2022/03/17 05:08:25;;;;;;;5.10;3.00;;;;;;;0.94;64.01;100737.63;5112942;28;20036;-86
2022/03/17 05:10:58;;;;;;;4.43;2.72;;;;;;;1.14;62.32;100751.09;5105016;28;20040;-86
2022/03/17 05:13:29;;;;;;;6.60;2.75;;;;;;;1.18;61.74;100769.25;5101296;28;20066;-86
2022/03/17 05:16:00;;;;;;;5.93;3.10;;;;;;;1.35;61.93;100761.13;5096038;28;20051;-86
2022/03/17 05:18:33;;;;;;;4.28;2.80;;;;;;;1.26;61.94;100762.63;5099132;28;20062;-86
2022/03/17 05:21:05;;;;;;;5.72;2.95;;;;;;;1.32;61.78;100755.91;5093598;28;20071;-87
2022/03/17 05:23:38;;;;;;;5.70;3.20;;;;;;;1.35;61.56;100768.84;5096765;28;20080;-87
2022/03/17 05:26:10;;;;;;;5.85;3.03;;;;;;;1.40;60.56;100775.00;5089204;28;20048;-86
2022/03/17 05:28:41;;;;;;;7.07;3.20;;;;;;;1.28;60.72;100771.25;5101301;28;20153;-87
2022/03/17 05:31:13;;;;;;;4.53;3.47;;;;;;;1.35;61.74;100771.44;5082018;28;20051;-86
2022/03/17 05:33:45;;;;;;;4.03;3.17;;;;;;;1.26;61.43;100762.63;5092247;28;20056;-86
2022/03/17 05:36:19;;;;;;;5.47;2.88;;;;;;;1.13;61.55;100778.53;5093863;28;20053;-87
2022/03/17 05:38:49;;;;;;;4.55;2.80;;;;;;;1.11;61.23;100777.59;5097509;28;20063;-87
2022/03/17 05:41:24;;;;;;;5.38;3.30;;;;;;;1.14;61.51;100777.69;5099322;28;20048;-86
2022/03/17 05:43:55;;;;;;;9.55;3.28;;;;;;;0.92;60.68;100765.00;5098044;28;20051;-87
2022/03/17 05:46:26;;;;;;;5.13;3.20;;;;;;;0.95;62.00;100775.38;5090851;28;20068;-86
2022/03/17 05:49:04;;;;;;;5.45;3.50;;;;;;;0.66;63.90;100756.50;5088434;28;20048;-86
2022/03/17 05:55:38;;;;;;;4.55;2.90;;;;;;;0.58;63.48;100776.81;4906067;28;20413;-85
2022/03/17 05:58:11;;;;;;;5.38;3.38;;;;;;;0.54;64.41;100778.41;5017972;28;20053;-85
2022/03/17 06:00:42;;;;;;;6.05;3.90;;;;;;;0.41;64.81;100790.00;5034681;28;20103;-85
2022/03/17 06:03:13;;;;;;;7.10;4.35;;;;;;;0.47;65.93;100783.28;5029992;28;20048;-85
2022/03/17 06:05:44;;;;;;;8.55;3.30;;;;;;;0.29;68.73;100781.88;5028331;28;20396;-84
2022/03/17 06:08:15;;;;;;;7.32;2.88;;;;;;;0.16;69.89;100790.00;5028998;28;20064;-85
2022/03/17 06:10:45;;;;;;;7.85;3.15;;;;;;;0.10;70.57;100784.63;5026015;28;20049;-85
2022/03/17 06:13:18;;;;;;;4.78;2.60;;;;;;;-0.10;70.76;100782.25;5024755;28;20346;-85
2022/03/17 06:15:49;;;;;;;4.70;2.92;;;;;;;-0.01;71.39;100794.53;5036018;28;20108;-85
2022/03/17 06:18:20;;;;;;;6.28;3.42;;;;;;;-0.30;71.69;100783.22;5089671;28;20052;-85
2022/03/17 06:20:51;;;;;;;6.45;3.33;;;;;;;-0.34;72.37;100792.53;5105944;28;20328;-85
2022/03/17 06:23:21;;;;;;;4.75;3.05;;;;;;;-0.39;72.23;100788.06;5088426;28;20044;-85
2022/03/17 06:25:52;;;;;;;5.75;3.20;;;;;;;-0.45;72.76;100799.84;5091970;28;20108;-85
2022/03/17 06:28:25;;;;;;;7.38;3.70;;;;;;;-0.47;72.45;100801.47;5088870;28;20374;-85
2022/03/17 06:30:56;;;;;;;5.95;3.03;;;;;;;-0.73;72.81;100777.41;5096791;28;20055;-85
2022/03/17 06:33:28;;;;;;;6.57;3.22;;;;;;;-0.77;73.39;100784.94;5107354;28;20107;-85
2022/03/17 06:35:59;;;;;;;5.60;3.22;;;;;;;-0.59;73.27;100801.03;5107324;28;20387;-86
2022/03/17 06:38:30;;;;;;;4.45;2.58;;;;;;;-0.69;73.61;100801.50;5107460;28;20046;-85
2022/03/17 06:41:00;;;;;;;5.45;3.13;;;;;;;-0.75;74.19;100808.94;5115611;28;20017;-85
2022/03/17 06:43:33;;;;;;;5.45;2.65;;;;;;;-0.78;74.07;100799.44;5121482;28;20084;-85
2022/03/17 06:46:03;;;;;;;5.15;2.70;;;;;;;-0.80;74.40;100805.34;5112669;28;20034;-85
2022/03/17 06:48:34;;;;;;;5.60;3.25;;;;;;;-0.84;74.78;100813.75;5114519;28;20084;-86
2022/03/17 06:51:06;;;;;;;4.20;3.08;;;;;;;-0.93;75.07;100810.00;5114945;28;20028;-85
2022/03/17 06:53:37;;;;;;;7.50;3.08;;;;;;;-1.00;75.36;100815.72;5115846;28;20133;-85
2022/03/17 06:56:07;;;;;;;5.78;3.50;;;;;;;-1.01;75.41;100801.13;5114353;28;20048;-85
2022/03/17 06:58:40;;;;;;;6.97;3.08;;;;;;;-0.99;75.42;100804.66;5104968;28;20036;-86
2022/03/17 07:01:11;;;;;;;6.55;3.55;;;;;;;-0.96;75.38;100812.44;5115443;28;20032;-85
2022/03/17 07:03:42;;;;;;;6.47;3.30;;;;;;;-0.95;75.53;100816.78;5107894;28;20041;-85
2022/03/17 07:06:13;;;;;;;6.15;3.13;;;;;;;-1.82;75.39;100693.72;5099230;28;20033;-86
2022/03/17 07:08:44;;;;;;;4.60;3.05;;;;;;;-1.14;76.10;100819.44;5102500;28;20118;-85
2022/03/17 07:11:15;;;;;;;6.85;3.20;;;;;;;-1.23;76.08;100813.94;5093112;28;20317;-85
2022/03/17 07:13:47;;;;;;;5.13;3.08;;;;;;;-1.23;76.68;100832.75;5097748;28;20086;-85
2022/03/17 07:16:19;;;;;;;5.35;2.97;;;;;;;-1.27;76.95;100827.44;5091901;28;20043;-84
2022/03/17 07:18:50;;;;;;;7.55;3.28;;;;;;;-1.29;77.23;100829.09;5086291;28;20120;-84
2022/03/17 07:21:21;;;;;;;6.72;2.85;;;;;;;-1.34;77.44;100822.06;5096524;28;20044;-85
2022/03/17 07:23:52;;;;;;;7.32;3.10;;;;;;;-1.38;78.25;100832.13;5091408;28;20080;-85
2022/03/17 07:26:22;;;;;;;6.32;3.17;;;;;;;-1.41;78.13;100827.75;5098275;28;20051;-85
2022/03/17 07:28:56;;;;;;;5.30;3.05;;;;;;;-1.61;78.80;100820.94;5092906;28;20075;-85
2022/03/17 07:31:27;;;;;;;7.05;3.90;;;;;;;-1.54;78.96;100833.19;5097997;28;20096;-86
2022/03/17 07:33:59;;;;;;;7.80;3.83;;;;;;;-1.55;79.53;100828.88;5095431;28;20040;-85
2022/03/17 07:36:30;;;;;;;7.88;3.88;;;;;;;-1.68;80.24;100829.19;5098400;28;20047;-84
2022/03/17 07:39:03;;;;;;;7.15;4.00;;;;;;;-1.74;79.95;100814.44;5099427;28;20119;-85
2022/03/17 07:41:34;;;;;;;8.18;4.32;;;;;;;-1.77;80.90;100835.66;5096344;28;20384;-88
2022/03/17 07:44:07;;;;;;;8.65;4.20;;;;;;;-1.81;81.13;100838.91;5099266;28;20135;-86
2022/03/17 07:46:38;;;;;;;8.23;3.95;;;;;;;-2.69;81.43;100708.81;5103385;28;20161;-89
2022/03/17 07:49:45;;;;;;;;;;;;;;;;;;;;;
2022/03/17 07:53:24;;;;;;;11.43;4.72;;;;;;;-2.43;82.38;100775.59;4998509;28;20210;-95
2022/03/17 07:56:55;;;;;;;7.43;4.40;;;;;;;-2.99;82.64;100697.22;4840577;29;20149;-89
2022/03/17 07:59:48;;;;;;;9.30;4.75;;;;;;;-2.11;82.95;100852.94;4876081;29;20392;-87
2022/03/17 08:02:20;;;;;;;8.43;3.83;;;;;;;-2.32;83.27;100828.16;4910628;28;20118;-88
2022/03/17 08:04:52;;;;;;;6.88;3.95;;;;;;;-2.22;83.64;100847.34;4992600;28;20304;-86
2022/03/17 08:07:23;;;;;;;13.88;4.60;;;;;;;-2.26;84.14;100848.03;4991514;28;20117;-86
2022/03/17 08:09:54;;;;;;;9.02;4.82;;;;;;;-2.31;84.11;100860.63;5089027;28;20055;-85
2022/03/17 08:12:26;;;;;;;12.32;5.40;;;;;;;-2.34;84.50;100850.25;5094761;28;20056;-81
2022/03/17 08:14:59;;;;;;;11.27;4.65;;;;;;;-2.62;84.86;100813.16;5094087;28;20316;-83
2022/03/17 08:17:30;;;;;;;9.23;4.28;;;;;;;-2.44;85.18;100848.06;5094152;28;20044;-81
2022/03/17 08:20:01;;;;;;;9.40;5.25;;;;;;;-2.50;85.51;100847.78;5100020;28;20119;-82
2022/03/17 08:22:31;;;;;;;11.98;4.95;;;;;;;-2.74;85.29;100806.63;5102610;28;20335;-82
2022/03/17 08:25:03;;;;;;;9.25;4.47;;;;;;;-2.64;85.22;100821.59;5085624;28;20340;-81
2022/03/17 08:27:34;;;;;;;6.50;3.90;;;;;;;-2.55;85.46;100859.50;5094283;28;20056;-81
2022/03/17 08:30:07;;;;;;;10.95;3.92;;;;;;;-2.56;85.58;100860.31;5094620;28;20062;-85
2022/03/17 08:32:39;;;;;;;10.23;4.10;;;;;;;-2.63;85.90;100862.56;5100112;28;20072;-85
2022/03/17 08:35:11;;;;;;;9.52;4.43;;;;;;;-2.67;85.75;100865.81;5092978;28;20294;-86
2022/03/17 08:37:42;;;;;;;10.10;3.80;;;;;;;-3.20;85.68;100776.34;5093247;28;20047;-84
2022/03/17 08:40:15;;;;;;;7.50;4.00;;;;;;;-2.71;85.81;100863.91;5101902;28;20051;-87
2022/03/17 08:42:45;;;;;;;9.43;4.70;;;;;;;-2.70;85.92;100870.75;5094179;28;20104;-86
2022/03/17 08:50:54;;;;;;;10.00;4.03;;;;;;;-2.77;86.14;100878.97;5083460;28;20108;-87
2022/03/17 08:53:25;;;;;;;7.55;3.42;;;;;;;-2.73;86.04;100874.88;5092710;28;20343;-88
2022/03/17 08:55:56;;;;;;;6.85;4.25;;;;;;;-2.97;86.06;100843.88;5087679;28;20078;-88
2022/03/17 08:58:34;;;;;;;7.03;4.28;;;;;;;-2.77;86.12;100884.09;5092416;28;20243;-87
2022/03/17 09:01:06;;;;;;;8.85;4.00;;;;;;;-2.78;86.54;100884.00;5083495;28;20218;-84
2022/03/17 09:03:37;;;;;;;7.53;4.25;;;;;;;-2.81;86.14;100887.31;5086082;28;20044;-86
2022/03/17 09:06:10;;;;;;;8.10;4.60;;;;;;;-2.78;86.13;100882.31;5092547;28;20118;-87
2022/03/17 09:08:45;;;;;;;9.18;4.85;;;;;;;-2.79;86.33;100885.69;5087938;28;20066;-88
2022/03/17 09:11:15;;;;;;;6.35;4.00;;;;;;;-2.76;86.31;100890.06;5086684;28;20048;-92
2022/03/17 09:13:48;;;;;;;7.30;4.18;;;;;;;-2.81;86.03;100877.06;5091441;28;20185;-84
2022/03/17 09:16:21;;;;;;;19.10;10.25;;;;;;;-3.04;86.21;100848.72;5092942;28;20055;-88
2022/03/17 09:18:52;;;;;;;11.25;5.80;;;;;;;-2.80;86.09;100894.16;5081290;28;20056;-87
2022/03/17 09:24:35;;;;;;;7.60;4.68;;;;;;;-3.35;86.36;100802.03;5083584;28;20064;-88
2022/03/17 09:27:06;;;;;;;8.00;5.00;;;;;;;-2.96;86.35;100861.00;5097846;28;20340;-86
2022/03/17 09:29:38;;;;;;;8.38;4.95;;;;;;;-3.00;86.46;100874.44;5089443;28;20052;-83
2022/03/17 09:32:11;;;;;;;20.55;8.13;;;;;;;-2.84;86.63;100897.38;5100065;28;20348;-85
2022/03/17 09:34:41;;;;;;;17.33;6.57;;;;;;;-2.89;86.59;100894.59;5099349;28;20078;-84
2022/03/17 09:37:12;;;;;;;8.25;5.00;;;;;;;-2.78;86.38;100918.13;5091062;28;20103;-88
2022/03/17 09:39:46;;;;;;;10.13;4.90;;;;;;;-2.75;86.28;100908.03;5101214;28;20048;-87
2022/03/17 09:42:19;;;;;;;11.10;4.90;;;;;;;-3.05;86.40;100876.75;5089198;28;20076;-88
2022/03/17 09:44:53;;;;;;;8.43;4.55;;;;;;;-2.81;86.22;100912.88;5085899;28;20055;-85
2022/03/17 09:47:29;;;;;;;11.93;4.20;;;;;;;-2.86;86.60;100911.78;5098998;28;20115;-85
2022/03/17 09:50:02;;;;;;;8.05;4.88;;;;;;;-2.88;86.69;100905.72;5097857;28;20048;-85
2022/03/17 09:52:33;;;;;;;9.70;4.68;;;;;;;-2.75;86.56;100917.41;5094208;28;20051;-87
2022/03/17 09:55:03;;;;;;;7.93;4.20;;;;;;;-2.75;86.46;100918.25;5092459;28;20040;-88
2022/03/17 09:57:35;;;;;;;6.95;4.18;;;;;;;-3.01;86.09;100880.38;5097722;28;20087;-87
2022/03/17 10:00:06;;;;;;;8.95;4.22;;;;;;;-3.12;86.13;100880.72;5103715;28;20113;-85
2022/03/17 10:02:40;;;;;;;6.72;3.78;;;;;;;-3.18;86.50;100844.63;5096485;28;20052;-86
2022/03/17 10:05:12;;;;;;;8.40;4.57;;;;;;;-2.77;86.26;100919.91;5089203;28;20075;-85
2022/03/17 10:07:42;;;;;;;8.15;4.38;;;;;;;-2.98;86.09;100877.94;5095295;28;20040;-86
2022/03/17 10:10:13;;;;;;;8.05;4.50;;;;;;;-2.83;86.46;100914.47;5086319;28;20087;-85
2022/03/17 10:12:44;;;;;;;10.82;5.60;;;;;;;-2.88;86.55;100921.91;5100662;28;20047;-85
2022/03/17 10:15:19;;;;;;;10.02;5.00;;;;;;;-2.92;86.46;100919.13;5099634;28;20097;-85
2022/03/17 10:17:52;;;;;;;7.13;4.30;;;;;;;-2.92;86.29;100924.25;5099344;28;20055;-84
2022/03/17 10:20:25;;;;;;;9.50;5.07;;;;;;;-2.96;86.73;100918.13;5100484;28;20048;-84
2022/03/17 10:22:56;;;;;;;9.45;5.18;;;;;;;-3.15;86.54;100884.78;5103378;28;20067;-83
2022/03/17 10:25:29;;;;;;;8.45;4.97;;;;;;;-2.91;86.84;100926.91;5104213;28;20058;-84
2022/03/17 10:28:02;;;;;;;9.65;4.68;;;;;;;-2.92;86.62;100924.25;5097556;28;20130;-84
2022/03/17 10:30:34;;;;;;;7.22;4.55;;;;;;;-3.48;86.53;100839.78;5092486;28;20107;-85
2022/03/17 10:33:09;;;;;;;11.60;5.32;;;;;;;-3.25;86.67;100878.34;5099883;28;20059;-83
2022/03/17 10:35:45;;;;;;;7.80;4.85;;;;;;;-2.90;86.79;100922.66;5091923;28;20079;-87
2022/03/17 10:38:17;;;;;;;10.00;4.60;;;;;;;-3.03;86.98;100905.84;5088536;28;20049;-85
2022/03/17 10:41:01;;;;;;;9.23;4.68;;;;;;;-2.87;87.15;100933.03;5094800;28;20046;-84
2022/03/17 10:43:33;;;;;;;11.77;4.90;;;;;;;-2.83;86.91;100929.81;5091752;28;20108;-89
2022/03/17 10:46:09;;;;;;;9.07;4.95;;;;;;;-2.79;86.90;100926.63;5083981;28;20310;-85
2022/03/17 10:48:57;;;;;;;7.38;3.97;;;;;;;-2.82;87.05;100932.47;5099097;28;20070;-87
2022/03/17 10:51:38;;;;;;;10.32;4.20;;;;;;;-2.77;87.05;100939.47;5096810;28;20099;-87
2022/03/17 10:54:10;;;;;;;7.90;4.13;;;;;;;-3.08;87.02;100881.75;5099730;28;20065;-86
2022/03/17 10:56:41;;;;;;;9.27;5.00;;;;;;;-2.77;86.63;100929.22;5089652;28;20166;-87
2022/03/17 10:59:12;;;;;;;8.98;4.20;;;;;;;-2.80;86.90;100929.97;5095158;28;20078;-87
2022/03/17 11:01:49;;;;;;;10.88;4.93;;;;;;;-2.80;86.85;100935.06;5088410;28;20044;-87
2022/03/17 11:04:22;;;;;;;15.85;5.88;;;;;;;-2.85;86.58;100933.97;5099591;28;20240;-87
2022/03/17 11:06:54;;;;;;;11.32;5.88;;;;;;;-2.82;86.78;100931.59;5099585;28;20044;-87
2022/03/17 11:09:25;;;;;;;11.30;6.00;;;;;;;-2.97;86.90;100911.28;5091111;28;20280;-87
2022/03/17 11:11:56;;;;;;;12.70;6.38;;;;;;;-2.88;86.49;100936.41;5100050;28;20047;-86
2022/03/17 11:14:27;;;;;;;14.20;5.75;;;;;;;-2.92;86.60;100934.47;5091290;28;20055;-87
2022/03/17 11:17:00;;;;;;;11.02;5.40;;;;;;;-3.50;86.65;100835.38;5095464;28;20044;-87
2022/03/17 11:19:33;;;;;;;12.48;5.78;;;;;;;-3.03;86.89;100901.59;5102840;28;20051;-86
2022/03/17 11:22:09;;;;;;;12.38;5.38;;;;;;;-2.92;86.46;100934.47;5096931;28;20093;-86
2022/03/17 11:24:40;;;;;;;15.82;7.63;;;;;;;-2.90;86.84;100938.00;5099581;28;20040;-85
2022/03/17 11:27:12;;;;;;;9.70;5.22;;;;;;;-2.94;86.52;100931.00;5089234;28;20050;-85
2022/03/17 11:29:50;;;;;;;12.50;5.40;;;;;;;-2.88;86.60;100938.94;5094536;28;20320;-86
2022/03/17 11:32:29;;;;;;;12.57;5.18;;;;;;;-2.83;86.64;100945.16;5093243;28;20071;-87
2022/03/17 11:35:12;;;;;;;11.93;5.00;;;;;;;-2.97;86.54;100925.72;5092540;28;20103;-85
2022/03/17 11:37:43;;;;;;;8.95;4.70;;;;;;;-2.87;86.55;100930.47;5095344;28;20049;-86
2022/03/17 11:40:20;;;;;;;10.15;3.92;;;;;;;-2.79;86.66;100943.66;5097573;28;20051;-86
2022/03/17 11:43:07;;;;;;;9.30;4.88;;;;;;;-2.93;86.63;100932.75;5101538;28;20075;-86
2022/03/17 11:45:40;;;;;;;9.60;4.88;;;;;;;-2.82;86.56;100944.38;5102923;28;20043;-88
2022/03/17 11:48:13;;;;;;;10.00;5.22;;;;;;;-2.77;86.54;100950.59;5090728;28;20051;-88
2022/03/17 11:50:52;;;;;;;9.55;5.00;;;;;;;-2.87;86.55;100927.91;5092775;28;20052;-87
2022/03/17 11:53:39;;;;;;;8.13;4.80;;;;;;;-2.91;86.50;100920.91;5094657;28;20344;-85
2022/03/17 11:56:33;;;;;;;14.23;5.85;;;;;;;-2.77;86.45;100945.47;5097490;28;20290;-89
2022/03/17 11:59:05;;;;;;;11.13;5.10;;;;;;;-2.84;86.09;100938.31;5099030;28;20115;-86
2022/03/17 12:01:41;;;;;;;9.10;4.57;;;;;;;-2.73;86.34;100947.38;5094976;28;20106;-87
2022/03/17 12:04:24;;;;;;;9.43;5.03;;;;;;;-2.66;86.28;100959.66;5098725;28;20090;-86
2022/03/17 12:07:07;;;;;;;11.55;5.15;;;;;;;-2.76;86.13;100921.66;5089006;28;20047;-77
2022/03/17 12:09:38;;;;;;;12.77;6.00;;;;;;;-2.67;86.01;100942.56;5089341;28;20111;-77
2022/03/17 12:12:20;;;;;;;9.70;5.72;;;;;;;-2.67;86.06;100942.56;5098014;28;20049;-77
2022/03/17 12:14:52;;;;;;;8.60;5.30;;;;;;;-2.70;86.11;100942.38;5094303;28;20047;-77
2022/03/17 12:17:24;;;;;;;12.02;5.80;;;;;;;-2.74;86.48;100926.84;5099542;28;20072;-79
2022/03/17 12:20:11;;;;;;;10.60;6.03;;;;;;;-2.70;86.17;100937.28;5095778;28;20066;-78
2022/03/17 12:22:44;;;;;;;13.52;6.03;;;;;;;-2.87;86.23;100923.69;5087020;28;20324;-78